Roberto Xavier

Recruteur - Ceará
20 Nov 2027
Samedi
Processus

Personnalité

Adaptabilité (5) Ambition (14) Controverse (4) Loyauté (4) Pression (11) Professionnalisme (5) Sportivité (14) Tempérament (18)

Profil

Style d'entraînement Démocratique
Diplôme Continental Pro
Détermination 5
Gestion des joueurs 6
Motivation 12
Discipline 12
Satisfaction professionnelle
100%
Fatigue
0%
Rôle Recruteur
Salaire 48.9K p/s
Contrat 14.03.2030

Performance

Comportement Bon
Efficacité de l'entraînement
35%
Développement des joueurs
60%
Prévention des blessures
20%
Mise en place tactique
45%

Événements récents

A participé à une réunion de recrutement maintenant
A recommandé une cible de transfert maintenant
A recommandé une cible de transfert maintenant
A participé à une réunion de recrutement 7j
A recommandé une cible de transfert 7j
A recommandé une cible de transfert 7j
A participé à une réunion de recrutement 7j
A participé à une réunion de recrutement 7j

Suivi en cours

57
Joueur Club Statut Capacité Confiance Observé Dernière observation Dernier vote
Jhosefer ABC Négociation 98 / 107 69% 1 01.06.2027 Approuver
Pietro Reggiori Pro Patria Actif 102 / 100 40% 1 30.05.2027 -
Lucas Jetten Cambuur Actif 123 / 118 40% 1 30.05.2027 -
Abraham Paintsil Hasaacas Actif 91 / 97 40% 1 28.05.2027 -
Gladson Sulemana Liberty Professionals Actif 88 / 108 40% 1 28.05.2027 -
Riley Owen Wycombe Wanderers Actif 105 / 115 40% 1 11.05.2027 -
Sascha Britschgi Catanzaro Actif 123 / 134 40% 1 11.05.2027 -
Maeson King Blackpool Actif 101 / 117 40% 1 11.05.2027 -
Enzo Cardozo Virtus Entella Actif 109 / 106 40% 2 08.05.2027 -
Bakary Haïdara Hearts of Oak Actif 107 / 102 40% 1 08.05.2027 -
Caleb Yirenkyi Coventry City Actif 130 / 147 40% 1 05.05.2027 -
T-Jay Parfitt Cardiff City Actif 87 / 101 40% 1 29.04.2027 -
Sam Curtis Swindon Town Actif 97 / 107 40% 1 29.04.2027 -
Pablo Lúcio Farense Actif 111 / 118 40% 2 26.04.2027 -
Pablo Penafiel Actif 83 / 99 40% 1 26.04.2027 -
Riquelme Thompson-Jones Shrewsbury Town Actif 102 / 111 40% 1 26.04.2027 -
Lodovico Felgueiras Actif 88 / 102 40% 2 23.04.2027 -
Mohammed Wakaso Hasaacas Actif 104 / 102 40% 1 23.04.2027 -
Jonathan De Irastorza Levante Actif 126 / 115 40% 1 19.04.2027 -
Luiz Araújo Flamengo Actif 134 / 137 69% 1 21.12.2026 Approuver
Yanis Begraoui Estoril Praia Actif 122 / 128 40% 1 25.11.2026 -
Diego Lainez Tigres Actif 144 / 118 40% 1 24.11.2026 Plus d'infos
Abraham Marcus Estrela da Amadora Actif 137 / 112 40% 1 24.11.2026 -
Borja Sainz Porto Actif 134 / 152 40% 1 24.11.2026 -
MT Santa Clara Actif 108 / 121 40% 1 17.11.2026 -
Welington Southampton Actif 116 / 131 40% 1 17.11.2026 -
Yuri Alberto Corinthians Actif 141 / 139 40% 1 17.11.2026 Plus d'infos
Cristian Ferreira Académico de Viseu Actif 122 / 123 40% 1 12.11.2026 -
Pedro Maranhão Tondela Actif 118 / 120 40% 1 12.11.2026 -
Talles Magno New York City Actif 131 / 135 40% 1 12.11.2026 -
Mario Dorgeles Braga Actif 144 / 144 40% 1 11.11.2026 -
Juan Bezerra Zamalek Actif 127 / 131 40% 1 11.11.2026 -
Gabriel Pec Cruzeiro Actif 127 / 127 40% 1 08.11.2026 -
Marquinhos Spartak Moscow Actif 134 / 132 40% 1 08.11.2026 -
Helinho Toluca Actif 128 / 130 40% 1 08.11.2026 -
Roni AVS Actif 114 / 125 40% 1 05.11.2026 -
Matheus Dias Nacional Actif 123 / 122 40% 1 05.11.2026 -
Alex Luna Instituto Actif 125 / 135 40% 1 05.11.2026 -
Manu Pozo Torreense Actif 123 / 127 40% 1 03.11.2026 -
Bruno Ramos Sporting CP Actif 101 / 116 40% 2 02.11.2026 -
Leandro Martins Benfica Actif 91 / 100 40% 1 17.10.2026 -
Bastien Meupiyou Alverca Actif 126 / 136 40% 1 17.10.2026 -
Toni Tamarit Alverca Actif 102 / 121 40% 1 17.10.2026 -
Figueiredo Alverca Actif 124 / 116 40% 1 14.09.2026 -
Weverson Gil Vicente Actif 121 / 115 40% 1 14.09.2026 -
Alan Benfica Actif 127 / 135 40% 2 12.09.2026 -
Alexandro Bernabei Internacional Actif 123 / 136 40% 1 12.09.2026 -
Paulo Victor Queretaro Actif 126 / 119 40% 1 09.09.2026 -
André Luiz Sporting Kansas City Actif 116 / 128 40% 1 09.09.2026 -
Kaick FC Dallas Actif 94 / 112 40% 1 08.08.2026 -
Pedro Bondo Famalicao Actif 110 / 133 40% 1 08.08.2026 -
Janderson Moreirense Actif 69 / 83 40% 1 07.08.2026 -
Iván Fresneda Sporting CP Actif 134 / 150 40% 1 05.08.2026 -
João Teixeira Porto Actif 111 / 116 40% 1 05.08.2026 -
André Wolverhampton Actif 151 / 147 40% 1 02.08.2026 -
Lucas Pires Burnley Actif 129 / 126 40% 1 02.08.2026 -
Rômulo Tigres Actif 122 / 110 40% 1 02.08.2026 -